Saturday, August 27, 2016
06:31 UTC
  |  Log In   |  Register Free
Airport Search:

Owosso Community Airport
(KRNP)

Owosso Community Airport Diagram
No Airport Diagram Available

FAA data valid effective Jul 21 2016 - Sep 15 2016 (unless otherwise noted).

 
 
 
 
 
 
 
 
 
 
 
 
 
 
Current Aviation Weather for KRNP

Weather Summary


The most recent METAR observation for RNP was updated at: 13:15 UTC
METAR for RNP is not available. Closest METAR is for
METAR

METAR KRNP 270615Z 00000KT 1/2SM FG VV005 16/16 A3015 RMK AO2 T01600160

METAR KRNP 270555Z 00000KT 7SM CLR 17/17 A3015 RMK AO2 T01650165 10243 20160

METAR KRNP 270534Z 00000KT 10SM CLR 17/17 A3016 RMK AO2 T01650165

METAR KRNP 270515Z 00000KT 10SM CLR 16/16 A3016 RMK AO2 T01610161

METAR KRNP 270455Z 00000KT 7SM CLR 17/17 A3015 RMK AO2 T01670167 402700160

METAR KRNP 270434Z 00000KT 5SM BR CLR 17/17 A3016 RMK AO2 T01690169

METAR KRNP 270415Z 00000KT 10SM CLR 17/17 A3016 RMK AO2 T01700170

METAR KRNP 270355Z 00000KT 10SM CLR 17/17 A3016 RMK AO2 T01700170

METAR KRNP 270335Z 00000KT 10SM CLR 18/18 A3016 RMK AO2 T01780178

METAR KAMN 270613Z 30003KT 10SM CLR 15/15 A3016 RMK AO2 T01460146

METAR KFNT 270553Z 00000KT 10SM CLR 19/17 A3016

METAR KHYX 270614Z 00000KT 10SM CLR 17/15 A3014 RMK AO2

TAF for RNP is not available.
TAF

KFNT - TAF KFNT 270523Z 2706/2806 VRB03KT P6SM BKN200

KFNT - FM271300 14005KT P6SM SCT080 BKN120 OVC200

KFNT - FM271700 18007KT P6SM SCT050 OVC120 PROB30 2718/2722 5SM SHRA OVC030

KFNT - FM272300 14005KT P6SM SCT080 OVC120 =

KLAN - TAF KLAN 270532Z 2706/2806 VRB03KT P6SM BKN100

KLAN - FM270800 08004KT P6SM VCSH OVC050

KLAN - FM271300 14006KT P6SM VCTS OVC040CB

KLAN - FM272100 16006KT P6SM BKN040 =

KMBS - TAF KMBS 270523Z 2706/2806 VRB03KT P6SM BKN200

KMBS - FM271300 14005KT P6SM SCT080 BKN120 OVC200

KMBS - FM271600 18007KT 6SM -SHRA OVC050 PROB30 2716/2720 4SM RA OVC030

KMBS - FM272100 14005KT P6SM SCT080 OVC120 =

GlobalAir.com is loading additional information.
 Current Weather at RNP
62.0 F° (16.7 C°)

North winds at 0.0 mph
Pressure:
30.15 in
Humidity:
100%
Wind:
North at 0.0 mph
Dew Point:
62.1 F° (16.7 C°)
Visibility:
7.00 mi
RNP NOAA Radar




Find All Airport Services Find A Hotel Find A Rental Car Find A Golf Course Find A Restaurant $100 Hamburger



Airport Weather Forecast for KRNP

Translated METAR for KRNP (0615 UTC)
METAR:
KRNP 270615Z AUTO Owosso Community, Owosso, MI (KRNP). Aug 27, 0615Z, Automated. Fog, Wind is Calm, 1/2 statute mile visibility, Vertical Visibility of 500 feet, Temperature 16°C, Dewpoint 16°C, Altimeter is 30.15. Remarks: automated station with precipitation discriminator hourly temp 16.0°C dewpoint 16.0°C
Conditions at:
KRNP (Owosso Community, MI) observed 0615 UTC 27 August 2016
Temperature:
1°C (33.8°F)
Dewpoint:
not reported - refer to area weather report
Pressure:
30.15 Hg
Winds:
not reported
Visibility:
7.00
Ceiling:
at least 12,000 feet AGL
Clouds:
not reported - refer to area weather report
Remarks:
site is un-manned

Translated TAF for TAF for RNP is not available. Refer to local area forecast.
FBO's on the Field
FBO Company Facility Photos Services Transportation Aviation Fuel Prices: Prices include tax
Catering Weather Repair Courtesy Rental Type 100LL JetA JetA+ MOGAS 8087
 
Owosso Community Airport

This FBO has not yet been rated
FS:Avfuel
Last Updated: Aug-12
Login to update fuel prices
SS:
Contact Owosso Community AirportMore FBO Information
 
Add another FBO Facility Photos Catering Weather Repair Courtesy Rental Type 100LL JetA JetA+ MOGAS 8087
Services Transportation Aviation Fuel Prices: Prices include tax


model-print
model-print
model-print
model-print